Sachse's Hourly Summary for Tuesday, May 15, 2018
Hour Temp
(f)
RH
(%)
Solar Rad.
(MJ/m2)
Rainfall
(in)
Wind
(mph)
5/15/2018 12:00 AM 77 68 0 0 4.45
5/15/2018 1:00 AM 76 70 0 0 4.36
5/15/2018 2:00 AM 76 73 0 0 5.18
5/15/2018 3:00 AM 75 72 0 0 5.17
5/15/2018 4:00 AM 75 72 0 0 4.67
5/15/2018 5:00 AM 74 74 0 0 2.33
5/15/2018 6:00 AM 74 73 0 0 0.66
5/15/2018 7:00 AM 74 75 0.01 0 2.17
5/15/2018 8:00 AM 73 75 0.2 0 1.77
5/15/2018 9:00 AM 74 76 0.25 0 2.66
5/15/2018 10:00 AM 72 77 0.17 0.2 2.13
5/15/2018 11:00 AM 71 85 0.65 0.03 3.31
5/15/2018 12:00 PM 74 73 1.4 0 4.53
5/15/2018 1:00 PM 78 54 2.92 0 5.17
5/15/2018 2:00 PM 80 51 1.65 0 5.86
5/15/2018 3:00 PM 82 50 2.64 0 6.02
5/15/2018 4:00 PM 84 41 2.46 0 5.29
5/15/2018 5:00 PM 85 42 1.66 0 3.75
5/15/2018 6:00 PM 84 44 0.75 0 4.14
5/15/2018 7:00 PM 81 43 0.31 0 3.93
5/15/2018 8:00 PM 77 60 0.19 0 4.33
5/15/2018 9:00 PM 75 64 0.01 0 3.33
5/15/2018 10:00 PM 72 68 0 0 0.81
5/15/2018 11:00 PM 71 73 0 0 0
Data Summary 76 64 15.27 0.23 3.58